AirNav   Everest Fuels
 
 760 users online  

3L2 Sky Ranch Airport
Sandy Valley, Nevada, USA

GOING TO SANDY VALLEY?


FAA INFORMATION EFFECTIVE 05 DECEMBER 2019

Location

FAA Identifier: 3L2
Lat/Long: 35-47-34.6000N 115-37-35.1000W
35-47.576667N 115-37.585000W
35.7929444,-115.6264167
(estimated)
Elevation: 2599 ft. / 792.2 m (surveyed)
Variation: 14E (1985)
From city: 2 miles SW of SANDY VALLEY, NV
Time zone: UTC -8 (UTC -7 during Daylight Saving Time)
Zip code: 89019

Airport Operations

Airport use: Open to the public
Activation date: 06/1979
Control tower: no
ARTCC: LOS ANGELES CENTER
FSS: RENO FLIGHT SERVICE STATION
NOTAMs facility: RNO (NOTAM-D service available)
Attendance: IREG
Wind indicator: yes
Segmented circle: yes
Lights: SS-SR

Airport Communications

CTAF/UNICOM: 123.0

Nearby radio navigation aids

VOR radial/distance  VOR name  Freq  Var
LASr218/28.5LAS VEGAS VORTAC116.9015E
BLDr237/39.0BOULDER CITY VORTAC116.7015E

Airport Services

Parking: hangars and tiedowns

Runway Information

Runway 3/21

Dimensions: 3340 x 45 ft. / 1018 x 14 m
Surface: asphalt, in good condition
Runway edge lights: non-standard
RY 03/21 THLD LGTS ONLY. RY EDGES MARKED WITH REFLECTORS.
RUNWAY 3  RUNWAY 21
Traffic pattern: rightleft
Displaced threshold: no180 ft.
DSPLCD THLD MARKED WITH 8 FT WHITE LINE.
Markings: basic, in good conditionbasic, in good condition
Obstructions: none17 ft. road, 200 ft. from runway
+16 FT ROAD, 0-200 FT FROM RWY END, 125 FT R TO OB. +4 FT FENCE, 0-200 FT FROM RWY END, 108 FT R TO OB.

Runway 12/30

Dimensions: 3300 x 105 ft. / 1006 x 32 m
Surface: dirt, in fair condition
Operational restrictions: RY 12/30 THLD NOT MARKED.
RUNWAY 12  RUNWAY 30
Latitude: 35-47.765960N35-47.388083N
Longitude: 115-37.825518W115-37.345095W
Elevation: 2575.0 ft.2575.0 ft.
Traffic pattern: rightleft
Runway heading: 120 magnetic, 134 true300 magnetic, 314 true
Markings: nonenone

Airport Ownership and Management from official FAA records

Ownership: Privately-owned
Owner: SKY RANCH HOMEOWNERS ASSN
838 SARATOGA AVENUE
SANDY VALLEY, NV 89019-8623
Phone 702-723-5018
Manager: WILLIAM POOLE
BOX 455
SANDY VALLEY, NV 89019-8529
Phone (619) 249-5750

Airport Operational Statistics

Aircraft based on the field: 75
Single engine airplanes: 65
Multi engine airplanes: 5
Gliders airplanes: 2
Ultralights: 3
    
Aircraft operations: avg 57/week *
90% local general aviation
10% transient general aviation
* for 12-month period ending 30 November 2015

Additional Remarks

AVOID NOISE SENSITIVE RESIDENTIAL AREA 1.5 MILES NW OF ARPT.
LOW FLYING MILITARY AIRCRAFT IN AREA.
UNMARKED & UNLIGHTED POWER POLES/LINES NW/SE OF RWY 03/21.
ARPT IS A RESIDENTIAL AIRPARK; AUTO TRAFFIC IS ON & ACROSS RWYS & TWYS.
OCNL LIVESTOCK ON AND INVOF ACFT MOVEMENT AREAS.
RY 03/21 OBSTACLE FREE AREA LIMITED TO 96 FT EITHER SIDE OF RY CNTRLN.
NO LINE OF SIGHT BTWN RY ENDS.
ULTRALIGHT ACTIVITY ON AND IN VICINTY OF AIRPORT.
FOR CD CTC LAS VEGAS APCH AT 725-200-4432.

Instrument Procedures

There are no published instrument procedures at 3L2.

Some nearby airports with instrument procedures:

KHND - Henderson Executive Airport (26 nm NE)
KLAS - Mc Carran International Airport (29 nm NE)
KVGT - North Las Vegas Airport (33 nm NE)
KBVU - Boulder City Municipal Airport (38 nm E)
KLSV - Nellis Air Force Base (39 nm NE)
 
Loc | Ops | Rwys | IFR | FBO | Links
Com | Nav | Svcs | Stats | Notes
Area around 3L2 (Sky Ranch Airport)
 
Road maps at: MapQuest Bing Google
 
Aerial photo
WARNING: Photo may not be current or correct
Aerial photo of 3L2 (Sky Ranch Airport)
Photo by Greg Tarasoff

Do you have a better or more recent aerial photo of Sky Ranch Airport that you would like to share? If so, please send us your photo.

 
Sectional chart

 
Airport distance calculator
Flying to Sky Ranch Airport? Find the distance to fly.

From to 3L2

Sunrise and sunset
Times for 15-Dec-2019
 Local
(UTC-8)
 Zulu
(UTC)
Morning civil twilight06:1814:18
Sunrise06:4614:46
Sunset16:2900:29
Evening civil twilight16:5800:58

Current date and time
Zulu (UTC)  15-Dec-2019 21:27:14
Local (UTC-8)  15-Dec-2019 13:27:14
 
METAR
KHND 
27nm NE 
152056Z 34016KT 10SM CLR 12/M04 A2996 RMK AO2 SLP161 T01221039 51001
KLAS 
29nm NE 
152056Z 32020G30KT 10SM FEW085 13/M05 A2993 RMK AO2 PK WND 32030/2052 SLP131 T01331050 58001
KVGT 
32nm NE 
152053Z 31023G28KT 10SM -RA CLR 14/M05 A2992 RMK AO2 PK WND 34030/2038 SLP147 P0000 60000 T01391050 58004
KBVU 
38nm E 
152115Z AUTO 33020KT 10SM CLR 13/M05 A2995 RMK AO2
KLSV 
39nm NE 
152058Z 27018G26KT 10SM FEW150 13/M01 A2993 RMK AO2A PK WND 29029/08 SLP130 T01321008 55001 $
KINS 
47nm N 
152058Z AUTO 30011KT 10SM CLR 10/M04 A2994 RMK AO2 SLP127 T00991041 50001 $
TAF
KHND 
27nm NE 
151736Z 1518/1618 VRB05KT P6SM FEW070 SCT120 FM152000 32012G20KT P6SM FEW070 SCT120 FM160100 VRB06KT P6SM FEW200
KLAS 
29nm NE 
151736Z 1518/1624 VRB05KT P6SM FEW070 SCT120 FM151930 33014G22KT P6SM FEW080 SCT120 FM160100 30008KT P6SM FEW200 FM161100 35006KT P6SM FEW200 FM161800 02008KT P6SM FEW200
KVGT 
32nm NE 
151757Z 1518/1618 31010KT P6SM FEW070 FEW120 FM151830 33014G22KT P6SM FEW080 SCT120 FM160100 34010KT P6SM FEW200
NOTAMs
Click for the latest NOTAMs
NOTAMs are issued by the DoD/FAA and will open in a separate window not controlled by AirNav.

 

 
 

Would you like to see your business listed on this page?

 If your business provides an interesting product or service to pilots, flight crews, aircraft, or users of the Sky Ranch Airport, you should consider listing it here.  To start the listing process, click on the button below
 
Add a business
 

Other Pages about Sky Ranch Airport

Update a link
 
Copyright © AirNav, LLC. All rights reserved. Privacy Policy  Contact